sensor_id;sensor_type;location;lat;lon;timestamp;temperature;humidity
66330;DHT22;53134;51.114;6.934;2022-08-03T00:00:03;24.00;57.70
66330;DHT22;53134;51.114;6.934;2022-08-03T00:00:34;24.00;57.60
66330;DHT22;53134;51.114;6.934;2022-08-03T00:01:05;24.00;57.60
66330;DHT22;53134;51.114;6.934;2022-08-03T00:01:36;24.00;57.60
66330;DHT22;53134;51.114;6.934;2022-08-03T00:02:07;23.90;57.60
66330;DHT22;53134;51.114;6.934;2022-08-03T00:02:37;23.90;57.60
66330;DHT22;53134;51.114;6.934;2022-08-03T00:03:07;23.90;57.60
66330;DHT22;53134;51.114;6.934;2022-08-03T00:03:38;24.00;57.60
66330;DHT22;53134;51.114;6.934;2022-08-03T00:04:10;24.00;57.40
66330;DHT22;53134;51.114;6.934;2022-08-03T00:04:40;24.10;57.60
66330;DHT22;53134;51.114;6.934;2022-08-03T00:05:10;24.10;57.50
66330;DHT22;53134;51.114;6.934;2022-08-03T00:05:41;24.10;57.40
66330;DHT22;53134;51.114;6.934;2022-08-03T00:06:11;24.20;57.40
66330;DHT22;53134;51.114;6.934;2022-08-03T00:06:42;24.20;57.40
66330;DHT22;53134;51.114;6.934;2022-08-03T00:07:12;24.10;57.30
66330;DHT22;53134;51.114;6.934;2022-08-03T00:07:43;24.20;57.40
66330;DHT22;53134;51.114;6.934;2022-08-03T00:08:13;24.20;57.20
66330;DHT22;53134;51.114;6.934;2022-08-03T00:08:44;24.30;57.20
66330;DHT22;53134;51.114;6.934;2022-08-03T00:09:14;24.40;57.10
66330;DHT22;53134;51.114;6.934;2022-08-03T00:09:45;24.40;57.00
66330;DHT22;53134;51.114;6.934;2022-08-03T00:10:15;24.40;56.80
66330;DHT22;53134;51.114;6.934;2022-08-03T00:10:46;24.40;56.80
66330;DHT22;53134;51.114;6.934;2022-08-03T00:11:17;24.50;56.90
66330;DHT22;53134;51.114;6.934;2022-08-03T00:11:47;24.50;56.80
66330;DHT22;53134;51.114;6.934;2022-08-03T00:12:18;24.50;56.80
66330;DHT22;53134;51.114;6.934;2022-08-03T00:12:48;24.50;56.80
66330;DHT22;53134;51.114;6.934;2022-08-03T00:13:20;24.40;56.60
66330;DHT22;53134;51.114;6.934;2022-08-03T00:13:50;24.30;56.70
66330;DHT22;53134;51.114;6.934;2022-08-03T00:14:21;24.20;56.80
66330;DHT22;53134;51.114;6.934;2022-08-03T00:14:51;24.20;57.00
66330;DHT22;53134;51.114;6.934;2022-08-03T00:15:22;24.10;57.20
66330;DHT22;53134;51.114;6.934;2022-08-03T00:15:52;24.00;57.10
66330;DHT22;53134;51.114;6.934;2022-08-03T00:16:23;24.10;57.20
66330;DHT22;53134;51.114;6.934;2022-08-03T00:16:55;24.20;57.10
66330;DHT22;53134;51.114;6.934;2022-08-03T00:17:26;24.20;57.00
66330;DHT22;53134;51.114;6.934;2022-08-03T00:17:56;24.30;57.00
66330;DHT22;53134;51.114;6.934;2022-08-03T00:18:27;24.40;56.90
66330;DHT22;53134;51.114;6.934;2022-08-03T00:18:57;24.40;56.70
66330;DHT22;53134;51.114;6.934;2022-08-03T00:19:28;24.50;56.70
66330;DHT22;53134;51.114;6.934;2022-08-03T00:19:58;24.60;56.60
66330;DHT22;53134;51.114;6.934;2022-08-03T00:20:29;24.60;56.50
66330;DHT22;53134;51.114;6.934;2022-08-03T00:20:59;24.60;56.40
66330;DHT22;53134;51.114;6.934;2022-08-03T00:21:29;24.60;56.20
66330;DHT22;53134;51.114;6.934;2022-08-03T00:22:00;24.70;56.30
66330;DHT22;53134;51.114;6.934;2022-08-03T00:22:31;24.70;56.20
66330;DHT22;53134;51.114;6.934;2022-08-03T00:23:03;24.80;56.30
66330;DHT22;53134;51.114;6.934;2022-08-03T00:23:34;24.80;56.20
66330;DHT22;53134;51.114;6.934;2022-08-03T00:24:04;24.80;56.20
66330;DHT22;53134;51.114;6.934;2022-08-03T00:24:35;24.80;56.10
66330;DHT22;53134;51.114;6.934;2022-08-03T00:25:06;24.70;56.10
66330;DHT22;53134;51.114;6.934;2022-08-03T00:25:36;24.70;56.20
66330;DHT22;53134;51.114;6.934;2022-08-03T00:26:07;24.60;56.20
66330;DHT22;53134;51.114;6.934;2022-08-03T00:26:37;24.60;56.20
66330;DHT22;53134;51.114;6.934;2022-08-03T00:27:08;24.70;56.30
66330;DHT22;53134;51.114;6.934;2022-08-03T00:27:38;24.60;56.20
66330;DHT22;53134;51.114;6.934;2022-08-03T00:28:09;24.60;56.30
66330;DHT22;53134;51.114;6.934;2022-08-03T00:28:39;24.60;56.20
66330;DHT22;53134;51.114;6.934;2022-08-03T00:29:10;24.60;56.30
66330;DHT22;53134;51.114;6.934;2022-08-03T00:29:40;24.60;56.20
66330;DHT22;53134;51.114;6.934;2022-08-03T00:30:11;24.70;56.20
66330;DHT22;53134;51.114;6.934;2022-08-03T00:30:41;24.70;56.20
66330;DHT22;53134;51.114;6.934;2022-08-03T00:31:12;24.70;56.30
66330;DHT22;53134;51.114;6.934;2022-08-03T00:31:42;24.60;56.20
66330;DHT22;53134;51.114;6.934;2022-08-03T00:32:13;24.60;56.40
66330;DHT22;53134;51.114;6.934;2022-08-03T00:32:43;24.60;56.40
66330;DHT22;53134;51.114;6.934;2022-08-03T00:33:14;24.50;56.40
66330;DHT22;53134;51.114;6.934;2022-08-03T00:33:44;24.50;56.30
66330;DHT22;53134;51.114;6.934;2022-08-03T00:34:15;24.50;56.50
66330;DHT22;53134;51.114;6.934;2022-08-03T00:34:45;24.50;56.50
66330;DHT22;53134;51.114;6.934;2022-08-03T00:35:16;24.40;56.50
66330;DHT22;53134;51.114;6.934;2022-08-03T00:35:46;24.40;56.60
66330;DHT22;53134;51.114;6.934;2022-08-03T00:36:17;24.50;56.50
66330;DHT22;53134;51.114;6.934;2022-08-03T00:36:47;24.50;56.50
66330;DHT22;53134;51.114;6.934;2022-08-03T00:37:18;24.50;56.50
66330;DHT22;53134;51.114;6.934;2022-08-03T00:37:48;24.50;56.60
66330;DHT22;53134;51.114;6.934;2022-08-03T00:38:19;24.50;56.60
66330;DHT22;53134;51.114;6.934;2022-08-03T00:38:49;24.50;56.70
66330;DHT22;53134;51.114;6.934;2022-08-03T00:39:20;24.40;56.60
66330;DHT22;53134;51.114;6.934;2022-08-03T00:39:50;24.40;56.50
66330;DHT22;53134;51.114;6.934;2022-08-03T00:40:21;24.50;56.60
66330;DHT22;53134;51.114;6.934;2022-08-03T00:40:51;24.60;56.50
66330;DHT22;53134;51.114;6.934;2022-08-03T00:41:22;24.60;56.50
66330;DHT22;53134;51.114;6.934;2022-08-03T00:41:52;24.60;56.40
66330;DHT22;53134;51.114;6.934;2022-08-03T00:42:23;24.60;56.20
66330;DHT22;53134;51.114;6.934;2022-08-03T00:42:57;24.70;56.40
66330;DHT22;53134;51.114;6.934;2022-08-03T00:43:28;24.70;56.30
66330;DHT22;53134;51.114;6.934;2022-08-03T00:43:58;24.80;56.30
66330;DHT22;53134;51.114;6.934;2022-08-03T00:44:29;24.70;56.30
66330;DHT22;53134;51.114;6.934;2022-08-03T00:45:00;24.60;56.20
66330;DHT22;53134;51.114;6.934;2022-08-03T00:45:34;24.60;56.40
66330;DHT22;53134;51.114;6.934;2022-08-03T00:46:05;24.50;56.50
66330;DHT22;53134;51.114;6.934;2022-08-03T00:46:36;24.40;56.60
66330;DHT22;53134;51.114;6.934;2022-08-03T00:47:06;24.50;56.70
66330;DHT22;53134;51.114;6.934;2022-08-03T00:47:37;24.50;56.60
66330;DHT22;53134;51.114;6.934;2022-08-03T00:48:08;24.50;56.60
66330;DHT22;53134;51.114;6.934;2022-08-03T00:48:38;24.50;56.50
66330;DHT22;53134;51.114;6.934;2022-08-03T00:49:09;24.60;56.50
66330;DHT22;53134;51.114;6.934;2022-08-03T00:49:39;24.60;56.30
66330;DHT22;53134;51.114;6.934;2022-08-03T00:50:10;24.70;56.50
66330;DHT22;53134;51.114;6.934;2022-08-03T00:50:41;24.70;56.30
66330;DHT22;53134;51.114;6.934;2022-08-03T00:51:12;24.70;56.20
66330;DHT22;53134;51.114;6.934;2022-08-03T00:51:42;24.80;56.30
66330;DHT22;53134;51.114;6.934;2022-08-03T00:52:13;24.80;56.30
66330;DHT22;53134;51.114;6.934;2022-08-03T00:52:44;24.80;56.10
66330;DHT22;53134;51.114;6.934;2022-08-03T00:53:15;24.80;56.10
66330;DHT22;53134;51.114;6.934;2022-08-03T00:53:46;24.90;56.20
66330;DHT22;53134;51.114;6.934;2022-08-03T00:54:17;24.90;56.10
66330;DHT22;53134;51.114;6.934;2022-08-03T00:54:48;24.90;56.00
66330;DHT22;53134;51.114;6.934;2022-08-03T00:55:18;24.90;56.00
66330;DHT22;53134;51.114;6.934;2022-08-03T00:55:49;24.90;56.00
66330;DHT22;53134;51.114;6.934;2022-08-03T00:56:19;24.90;56.00
66330;DHT22;53134;51.114;6.934;2022-08-03T00:56:50;24.90;55.90
66330;DHT22;53134;51.114;6.934;2022-08-03T00:57:21;24.90;55.90
66330;DHT22;53134;51.114;6.934;2022-08-03T00:57:51;24.90;55.90
66330;DHT22;53134;51.114;6.934;2022-08-03T00:58:22;24.90;56.00
66330;DHT22;53134;51.114;6.934;2022-08-03T00:58:53;24.90;55.90
66330;DHT22;53134;51.114;6.934;2022-08-03T00:59:26;24.90;56.00
66330;DHT22;53134;51.114;6.934;2022-08-03T00:59:56;24.90;56.00
66330;DHT22;53134;51.114;6.934;2022-08-03T01:00:29;24.90;56.00
66330;DHT22;53134;51.114;6.934;2022-08-03T01:00:59;24.90;56.00
66330;DHT22;53134;51.114;6.934;2022-08-03T01:01:30;24.90;56.00
66330;DHT22;53134;51.114;6.934;2022-08-03T01:02:00;24.90;55.90
66330;DHT22;53134;51.114;6.934;2022-08-03T01:02:32;24.90;56.20
66330;DHT22;53134;51.114;6.934;2022-08-03T01:03:03;24.60;56.20
66330;DHT22;53134;51.114;6.934;2022-08-03T01:03:33;24.60;56.30
66330;DHT22;53134;51.114;6.934;2022-08-03T01:04:04;24.60;56.30
66330;DHT22;53134;51.114;6.934;2022-08-03T01:04:34;24.70;56.30
66330;DHT22;53134;51.114;6.934;2022-08-03T01:05:05;24.70;56.30
66330;DHT22;53134;51.114;6.934;2022-08-03T01:06:25;24.80;56.20
66330;DHT22;53134;51.114;6.934;2022-08-03T01:08:43;24.90;56.10
66330;DHT22;53134;51.114;6.934;2022-08-03T01:10:05;24.90;56.00
66330;DHT22;53134;51.114;6.934;2022-08-03T01:11:32;24.90;56.10
66330;DHT22;53134;51.114;6.934;2022-08-03T01:12:13;24.90;56.10
66330;DHT22;53134;51.114;6.934;2022-08-03T01:13:24;24.90;56.00
66330;DHT22;53134;51.114;6.934;2022-08-03T01:14:20;24.90;55.90
66330;DHT22;53134;51.114;6.934;2022-08-03T01:14:53;24.90;56.00
66330;DHT22;53134;51.114;6.934;2022-08-03T01:16:51;25.00;55.90
66330;DHT22;53134;51.114;6.934;2022-08-03T01:17:28;24.90;55.80
66330;DHT22;53134;51.114;6.934;2022-08-03T01:19:01;24.90;55.90
66330;DHT22;53134;51.114;6.934;2022-08-03T01:19:43;24.90;55.90
66330;DHT22;53134;51.114;6.934;2022-08-03T01:20:15;24.90;56.00
66330;DHT22;53134;51.114;6.934;2022-08-03T01:20:47;25.00;56.00
66330;DHT22;53134;51.114;6.934;2022-08-03T01:21:20;25.00;56.10
66330;DHT22;53134;51.114;6.934;2022-08-03T01:22:44;24.90;55.80
66330;DHT22;53134;51.114;6.934;2022-08-03T01:24:34;25.00;55.90
66330;DHT22;53134;51.114;6.934;2022-08-03T01:27:12;24.90;55.90
66330;DHT22;53134;51.114;6.934;2022-08-03T01:30:17;24.90;55.80
66330;DHT22;53134;51.114;6.934;2022-08-03T01:30:48;24.90;55.70
66330;DHT22;53134;51.114;6.934;2022-08-03T01:31:21;24.90;55.80
66330;DHT22;53134;51.114;6.934;2022-08-03T01:31:56;24.80;55.80
66330;DHT22;53134;51.114;6.934;2022-08-03T01:32:41;24.80;56.00
66330;DHT22;53134;51.114;6.934;2022-08-03T01:33:19;24.70;56.00
66330;DHT22;53134;51.114;6.934;2022-08-03T01:34:01;24.70;56.00
66330;DHT22;53134;51.114;6.934;2022-08-03T01:34:33;24.80;56.10
66330;DHT22;53134;51.114;6.934;2022-08-03T01:35:10;24.70;56.20
66330;DHT22;53134;51.114;6.934;2022-08-03T01:35:43;24.60;56.20
66330;DHT22;53134;51.114;6.934;2022-08-03T01:36:17;24.60;56.20
66330;DHT22;53134;51.114;6.934;2022-08-03T01:36:50;24.70;56.30
66330;DHT22;53134;51.114;6.934;2022-08-03T01:37:23;24.70;56.20
66330;DHT22;53134;51.114;6.934;2022-08-03T01:37:56;24.70;56.20
66330;DHT22;53134;51.114;6.934;2022-08-03T01:38:34;24.70;56.20
66330;DHT22;53134;51.114;6.934;2022-08-03T01:39:05;24.80;56.30
66330;DHT22;53134;51.114;6.934;2022-08-03T01:39:38;24.80;56.20
66330;DHT22;53134;51.114;6.934;2022-08-03T01:40:10;24.80;56.10
66330;DHT22;53134;51.114;6.934;2022-08-03T01:40:42;24.80;56.10
66330;DHT22;53134;51.114;6.934;2022-08-03T01:41:19;24.80;56.00
66330;DHT22;53134;51.114;6.934;2022-08-03T01:41:52;24.80;55.90
66330;DHT22;53134;51.114;6.934;2022-08-03T01:42:24;24.90;56.00
66330;DHT22;53134;51.114;6.934;2022-08-03T01:42:54;24.90;55.90
66330;DHT22;53134;51.114;6.934;2022-08-03T01:43:27;24.90;55.90
66330;DHT22;53134;51.114;6.934;2022-08-03T01:44:01;24.90;55.90
66330;DHT22;53134;51.114;6.934;2022-08-03T01:44:33;24.90;55.90
66330;DHT22;53134;51.114;6.934;2022-08-03T01:45:05;24.90;55.80
66330;DHT22;53134;51.114;6.934;2022-08-03T01:45:36;24.90;55.80
66330;DHT22;53134;51.114;6.934;2022-08-03T01:46:07;24.90;55.80
66330;DHT22;53134;51.114;6.934;2022-08-03T01:46:38;24.90;55.80
66330;DHT22;53134;51.114;6.934;2022-08-03T01:47:09;24.80;55.90
66330;DHT22;53134;51.114;6.934;2022-08-03T01:47:41;24.80;55.90
66330;DHT22;53134;51.114;6.934;2022-08-03T01:48:14;24.80;56.00
66330;DHT22;53134;51.114;6.934;2022-08-03T01:48:46;24.80;55.90
66330;DHT22;53134;51.114;6.934;2022-08-03T01:49:17;24.70;55.90
66330;DHT22;53134;51.114;6.934;2022-08-03T01:49:47;24.80;56.10
66330;DHT22;53134;51.114;6.934;2022-08-03T01:50:22;24.80;56.10
66330;DHT22;53134;51.114;6.934;2022-08-03T01:50:54;24.70;56.00
66330;DHT22;53134;51.114;6.934;2022-08-03T01:51:25;24.70;55.90
66330;DHT22;53134;51.114;6.934;2022-08-03T01:51:55;24.80;56.10
66330;DHT22;53134;51.114;6.934;2022-08-03T01:52:26;24.80;56.10
66330;DHT22;53134;51.114;6.934;2022-08-03T01:52:57;24.80;56.10
66330;DHT22;53134;51.114;6.934;2022-08-03T01:53:28;24.70;55.90
66330;DHT22;53134;51.114;6.934;2022-08-03T01:54:00;24.80;56.10
66330;DHT22;53134;51.114;6.934;2022-08-03T01:54:35;24.80;56.00
66330;DHT22;53134;51.114;6.934;2022-08-03T01:55:07;24.80;56.10
66330;DHT22;53134;51.114;6.934;2022-08-03T01:55:38;24.80;56.00
66330;DHT22;53134;51.114;6.934;2022-08-03T01:56:09;24.80;56.00
66330;DHT22;53134;51.114;6.934;2022-08-03T01:56:40;24.80;55.90
66330;DHT22;53134;51.114;6.934;2022-08-03T01:57:12;24.80;55.90
66330;DHT22;53134;51.114;6.934;2022-08-03T01:57:42;24.80;55.80
66330;DHT22;53134;51.114;6.934;2022-08-03T01:58:14;24.80;55.80
66330;DHT22;53134;51.114;6.934;2022-08-03T01:58:45;24.80;55.70
66330;DHT22;53134;51.114;6.934;2022-08-03T01:59:20;24.80;55.70
66330;DHT22;53134;51.114;6.934;2022-08-03T01:59:51;24.90;55.90
66330;DHT22;53134;51.114;6.934;2022-08-03T02:00:22;24.90;55.80
66330;DHT22;53134;51.114;6.934;2022-08-03T02:00:54;24.90;55.80
66330;DHT22;53134;51.114;6.934;2022-08-03T02:01:28;24.90;55.80
66330;DHT22;53134;51.114;6.934;2022-08-03T02:02:00;24.80;55.60
66330;DHT22;53134;51.114;6.934;2022-08-03T02:02:31;24.90;55.70
66330;DHT22;53134;51.114;6.934;2022-08-03T02:03:03;24.90;55.60
66330;DHT22;53134;51.114;6.934;2022-08-03T02:03:38;24.90;55.60
66330;DHT22;53134;51.114;6.934;2022-08-03T02:04:10;24.90;55.60
66330;DHT22;53134;51.114;6.934;2022-08-03T02:04:42;24.90;55.60
66330;DHT22;53134;51.114;6.934;2022-08-03T02:05:13;24.90;55.50
66330;DHT22;53134;51.114;6.934;2022-08-03T02:05:44;24.90;55.50
66330;DHT22;53134;51.114;6.934;2022-08-03T02:06:15;24.90;55.50
66330;DHT22;53134;51.114;6.934;2022-08-03T02:06:47;24.90;55.60
66330;DHT22;53134;51.114;6.934;2022-08-03T02:07:17;24.90;55.60
66330;DHT22;53134;51.114;6.934;2022-08-03T02:07:48;24.90;55.50
66330;DHT22;53134;51.114;6.934;2022-08-03T02:08:20;24.90;55.60
66330;DHT22;53134;51.114;6.934;2022-08-03T02:08:52;24.90;55.50
66330;DHT22;53134;51.114;6.934;2022-08-03T02:09:24;24.90;55.40
66330;DHT22;53134;51.114;6.934;2022-08-03T02:09:57;24.90;55.50
66330;DHT22;53134;51.114;6.934;2022-08-03T02:10:28;24.80;55.40
66330;DHT22;53134;51.114;6.934;2022-08-03T02:10:59;24.80;56.10
66330;DHT22;53134;51.114;6.934;2022-08-03T02:11:30;24.80;55.50
66330;DHT22;53134;51.114;6.934;2022-08-03T02:12:01;24.80;55.50
66330;DHT22;53134;51.114;6.934;2022-08-03T02:12:33;24.80;55.50
66330;DHT22;53134;51.114;6.934;2022-08-03T02:13:04;24.90;55.60
66330;DHT22;53134;51.114;6.934;2022-08-03T02:13:35;24.90;55.50
66330;DHT22;53134;51.114;6.934;2022-08-03T02:14:06;24.90;55.50
66330;DHT22;53134;51.114;6.934;2022-08-03T02:14:38;24.90;55.50
66330;DHT22;53134;51.114;6.934;2022-08-03T02:15:10;24.90;55.40
66330;DHT22;53134;51.114;6.934;2022-08-03T02:15:41;24.90;55.50
66330;DHT22;53134;51.114;6.934;2022-08-03T02:16:12;24.90;55.40
66330;DHT22;53134;51.114;6.934;2022-08-03T02:16:45;24.90;55.40
66330;DHT22;53134;51.114;6.934;2022-08-03T02:17:17;24.90;55.40
66330;DHT22;53134;51.114;6.934;2022-08-03T02:17:48;24.80;56.10
66330;DHT22;53134;51.114;6.934;2022-08-03T02:18:19;24.80;55.40
66330;DHT22;53134;51.114;6.934;2022-08-03T02:18:50;24.80;55.40
66330;DHT22;53134;51.114;6.934;2022-08-03T02:19:21;24.80;55.50
66330;DHT22;53134;51.114;6.934;2022-08-03T02:19:53;24.80;55.60
66330;DHT22;53134;51.114;6.934;2022-08-03T02:20:25;24.80;55.60
66330;DHT22;53134;51.114;6.934;2022-08-03T02:20:56;24.80;55.60
66330;DHT22;53134;51.114;6.934;2022-08-03T02:21:28;24.80;55.50
66330;DHT22;53134;51.114;6.934;2022-08-03T02:21:59;24.80;55.50
66330;DHT22;53134;51.114;6.934;2022-08-03T02:22:30;24.80;55.50
66330;DHT22;53134;51.114;6.934;2022-08-03T02:23:02;24.80;55.60
66330;DHT22;53134;51.114;6.934;2022-08-03T02:23:32;24.80;55.60
66330;DHT22;53134;51.114;6.934;2022-08-03T02:24:03;24.80;55.60
66330;DHT22;53134;51.114;6.934;2022-08-03T02:24:34;24.80;55.60
66330;DHT22;53134;51.114;6.934;2022-08-03T02:25:06;24.80;55.50
66330;DHT22;53134;51.114;6.934;2022-08-03T02:26:19;24.80;55.50
66330;DHT22;53134;51.114;6.934;2022-08-03T02:26:30;24.80;55.40
66330;DHT22;53134;51.114;6.934;2022-08-03T02:27:01;24.80;55.40
66330;DHT22;53134;51.114;6.934;2022-08-03T02:27:33;24.80;55.40
66330;DHT22;53134;51.114;6.934;2022-08-03T02:28:07;24.80;55.40
66330;DHT22;53134;51.114;6.934;2022-08-03T02:28:40;24.80;55.40
66330;DHT22;53134;51.114;6.934;2022-08-03T02:29:20;24.80;55.40
66330;DHT22;53134;51.114;6.934;2022-08-03T02:29:57;24.80;55.30
66330;DHT22;53134;51.114;6.934;2022-08-03T02:30:30;24.80;55.30
66330;DHT22;53134;51.114;6.934;2022-08-03T02:31:04;24.80;55.30
66330;DHT22;53134;51.114;6.934;2022-08-03T02:31:34;24.80;55.30
66330;DHT22;53134;51.114;6.934;2022-08-03T02:32:08;24.80;55.30
66330;DHT22;53134;51.114;6.934;2022-08-03T02:32:40;24.80;55.30
66330;DHT22;53134;51.114;6.934;2022-08-03T02:33:13;24.80;55.30
66330;DHT22;53134;51.114;6.934;2022-08-03T02:33:51;24.80;55.40
66330;DHT22;53134;51.114;6.934;2022-08-03T02:34:23;24.80;55.40
66330;DHT22;53134;51.114;6.934;2022-08-03T02:34:57;24.80;55.30
66330;DHT22;53134;51.114;6.934;2022-08-03T02:35:28;24.80;55.40
66330;DHT22;53134;51.114;6.934;2022-08-03T02:35:59;24.70;55.40
66330;DHT22;53134;51.114;6.934;2022-08-03T02:36:31;24.70;55.30
66330;DHT22;53134;51.114;6.934;2022-08-03T02:37:04;24.70;55.40
66330;DHT22;53134;51.114;6.934;2022-08-03T02:37:38;24.70;55.40
66330;DHT22;53134;51.114;6.934;2022-08-03T02:38:10;24.70;55.50
66330;DHT22;53134;51.114;6.934;2022-08-03T02:38:42;24.60;55.40
66330;DHT22;53134;51.114;6.934;2022-08-03T02:39:14;24.60;55.40
66330;DHT22;53134;51.114;6.934;2022-08-03T02:39:46;24.70;55.50
66330;DHT22;53134;51.114;6.934;2022-08-03T02:40:19;24.70;55.50
66330;DHT22;53134;51.114;6.934;2022-08-03T02:40:50;24.70;55.50
66330;DHT22;53134;51.114;6.934;2022-08-03T02:41:23;24.70;55.40
66330;DHT22;53134;51.114;6.934;2022-08-03T02:41:53;24.70;55.50
66330;DHT22;53134;51.114;6.934;2022-08-03T02:42:31;24.70;55.40
66330;DHT22;53134;51.114;6.934;2022-08-03T02:43:04;24.60;55.60
66330;DHT22;53134;51.114;6.934;2022-08-03T02:43:36;24.60;55.60
66330;DHT22;53134;51.114;6.934;2022-08-03T02:44:08;24.60;55.60
66330;DHT22;53134;51.114;6.934;2022-08-03T02:44:39;24.50;55.60
66330;DHT22;53134;51.114;6.934;2022-08-03T02:45:10;24.40;55.60
66330;DHT22;53134;51.114;6.934;2022-08-03T02:45:45;24.40;55.70
66330;DHT22;53134;51.114;6.934;2022-08-03T02:46:17;24.40;55.90
66330;DHT22;53134;51.114;6.934;2022-08-03T02:46:48;24.30;55.80
66330;DHT22;53134;51.114;6.934;2022-08-03T02:47:22;24.30;56.00
66330;DHT22;53134;51.114;6.934;2022-08-03T02:47:54;24.20;55.90
66330;DHT22;53134;51.114;6.934;2022-08-03T02:48:27;24.10;56.00
66330;DHT22;53134;51.114;6.934;2022-08-03T02:48:59;24.00;56.30
66330;DHT22;53134;51.114;6.934;2022-08-03T02:49:31;24.00;56.50
66330;DHT22;53134;51.114;6.934;2022-08-03T02:50:02;23.80;56.50
66330;DHT22;53134;51.114;6.934;2022-08-03T02:50:33;23.70;56.50
66330;DHT22;53134;51.114;6.934;2022-08-03T02:51:04;23.80;56.70
66330;DHT22;53134;51.114;6.934;2022-08-03T02:51:35;23.70;56.60
66330;DHT22;53134;51.114;6.934;2022-08-03T02:52:08;23.70;56.70
66330;DHT22;53134;51.114;6.934;2022-08-03T02:52:39;23.70;56.90
66330;DHT22;53134;51.114;6.934;2022-08-03T02:53:10;23.70;56.90
66330;DHT22;53134;51.114;6.934;2022-08-03T02:53:41;23.70;56.80
66330;DHT22;53134;51.114;6.934;2022-08-03T02:54:14;23.70;56.80
66330;DHT22;53134;51.114;6.934;2022-08-03T02:54:47;23.70;56.80
66330;DHT22;53134;51.114;6.934;2022-08-03T02:55:19;23.70;56.80
66330;DHT22;53134;51.114;6.934;2022-08-03T02:55:50;23.70;56.80
66330;DHT22;53134;51.114;6.934;2022-08-03T02:56:22;23.70;56.70
66330;DHT22;53134;51.114;6.934;2022-08-03T02:56:53;23.80;56.70
66330;DHT22;53134;51.114;6.934;2022-08-03T02:57:26;23.80;56.80
66330;DHT22;53134;51.114;6.934;2022-08-03T02:57:57;23.80;56.80
66330;DHT22;53134;51.114;6.934;2022-08-03T02:58:28;23.80;56.80
66330;DHT22;53134;51.114;6.934;2022-08-03T02:59:00;23.80;56.70
66330;DHT22;53134;51.114;6.934;2022-08-03T02:59:31;23.80;56.70
66330;DHT22;53134;51.114;6.934;2022-08-03T03:00:02;23.80;56.70
66330;DHT22;53134;51.114;6.934;2022-08-03T03:00:33;23.70;56.70
66330;DHT22;53134;51.114;6.934;2022-08-03T03:01:04;23.70;56.90
66330;DHT22;53134;51.114;6.934;2022-08-03T03:01:35;23.60;56.90
66330;DHT22;53134;51.114;6.934;2022-08-03T03:02:07;23.50;56.90
66330;DHT22;53134;51.114;6.934;2022-08-03T03:02:39;23.50;57.10
66330;DHT22;53134;51.114;6.934;2022-08-03T03:03:10;23.50;57.10
66330;DHT22;53134;51.114;6.934;2022-08-03T03:03:41;23.40;57.20
66330;DHT22;53134;51.114;6.934;2022-08-03T03:04:11;23.40;57.30
66330;DHT22;53134;51.114;6.934;2022-08-03T03:04:42;23.30;57.40
66330;DHT22;53134;51.114;6.934;2022-08-03T03:05:13;23.20;57.50
66330;DHT22;53134;51.114;6.934;2022-08-03T03:05:44;23.20;57.80
66330;DHT22;53134;51.114;6.934;2022-08-03T03:06:16;23.10;57.70
66330;DHT22;53134;51.114;6.934;2022-08-03T03:06:46;23.10;57.80
66330;DHT22;53134;51.114;6.934;2022-08-03T03:07:18;23.10;58.00
66330;DHT22;53134;51.114;6.934;2022-08-03T03:07:49;23.10;58.60
66330;DHT22;53134;51.114;6.934;2022-08-03T03:08:20;23.10;58.00
66330;DHT22;53134;51.114;6.934;2022-08-03T03:08:51;23.10;58.00
66330;DHT22;53134;51.114;6.934;2022-08-03T03:09:21;23.10;58.00
66330;DHT22;53134;51.114;6.934;2022-08-03T03:09:52;23.10;58.00
66330;DHT22;53134;51.114;6.934;2022-08-03T03:10:23;23.10;58.00
66330;DHT22;53134;51.114;6.934;2022-08-03T03:10:58;23.00;57.90
66330;DHT22;53134;51.114;6.934;2022-08-03T03:11:29;23.10;58.00
66330;DHT22;53134;51.114;6.934;2022-08-03T03:11:59;23.10;58.00
66330;DHT22;53134;51.114;6.934;2022-08-03T03:12:32;23.00;58.10
66330;DHT22;53134;51.114;6.934;2022-08-03T03:13:05;23.00;58.20
66330;DHT22;53134;51.114;6.934;2022-08-03T03:13:36;23.00;58.10
66330;DHT22;53134;51.114;6.934;2022-08-03T03:14:08;23.00;58.20
66330;DHT22;53134;51.114;6.934;2022-08-03T03:14:39;23.00;58.20
66330;DHT22;53134;51.114;6.934;2022-08-03T03:15:09;23.00;57.90
66330;DHT22;53134;51.114;6.934;2022-08-03T03:15:40;23.10;58.00
66330;DHT22;53134;51.114;6.934;2022-08-03T03:16:12;23.30;58.10
66330;DHT22;53134;51.114;6.934;2022-08-03T03:16:43;23.30;58.00
66330;DHT22;53134;51.114;6.934;2022-08-03T03:17:14;23.30;57.80
66330;DHT22;53134;51.114;6.934;2022-08-03T03:17:47;23.50;57.70
66330;DHT22;53134;51.114;6.934;2022-08-03T03:18:19;23.60;57.70
66330;DHT22;53134;51.114;6.934;2022-08-03T03:18:50;23.60;57.50
66330;DHT22;53134;51.114;6.934;2022-08-03T03:19:22;23.60;57.30
66330;DHT22;53134;51.114;6.934;2022-08-03T03:19:53;23.70;57.30
66330;DHT22;53134;51.114;6.934;2022-08-03T03:20:24;23.70;57.20
66330;DHT22;53134;51.114;6.934;2022-08-03T03:20:56;23.80;57.20
66330;DHT22;53134;51.114;6.934;2022-08-03T03:21:27;23.80;57.20
66330;DHT22;53134;51.114;6.934;2022-08-03T03:22:01;23.80;57.20
66330;DHT22;53134;51.114;6.934;2022-08-03T03:22:32;23.80;57.20
66330;DHT22;53134;51.114;6.934;2022-08-03T03:23:03;23.70;57.10
66330;DHT22;53134;51.114;6.934;2022-08-03T03:23:35;23.70;57.30
66330;DHT22;53134;51.114;6.934;2022-08-03T03:24:06;23.60;57.20
66330;DHT22;53134;51.114;6.934;2022-08-03T03:24:37;23.70;57.20
66330;DHT22;53134;51.114;6.934;2022-08-03T03:25:09;23.60;57.20
66330;DHT22;53134;51.114;6.934;2022-08-03T03:25:39;23.50;57.20
66330;DHT22;53134;51.114;6.934;2022-08-03T03:26:10;23.60;57.30
66330;DHT22;53134;51.114;6.934;2022-08-03T03:26:42;23.50;57.40
66330;DHT22;53134;51.114;6.934;2022-08-03T03:27:13;23.40;57.30
66330;DHT22;53134;51.114;6.934;2022-08-03T03:27:43;23.50;57.50
66330;DHT22;53134;51.114;6.934;2022-08-03T03:28:14;23.40;57.30
66330;DHT22;53134;51.114;6.934;2022-08-03T03:28:45;23.50;57.30
66330;DHT22;53134;51.114;6.934;2022-08-03T03:29:16;23.50;57.50
66330;DHT22;53134;51.114;6.934;2022-08-03T03:29:47;23.50;57.50
66330;DHT22;53134;51.114;6.934;2022-08-03T03:30:18;23.50;57.40
66330;DHT22;53134;51.114;6.934;2022-08-03T03:30:48;23.50;57.30
66330;DHT22;53134;51.114;6.934;2022-08-03T03:31:19;23.50;57.30
66330;DHT22;53134;51.114;6.934;2022-08-03T03:31:50;23.60;57.30
66330;DHT22;53134;51.114;6.934;2022-08-03T03:32:20;23.70;57.30
66330;DHT22;53134;51.114;6.934;2022-08-03T03:32:51;23.70;57.20
66330;DHT22;53134;51.114;6.934;2022-08-03T03:33:22;23.70;57.20
66330;DHT22;53134;51.114;6.934;2022-08-03T03:33:53;23.70;57.20
66330;DHT22;53134;51.114;6.934;2022-08-03T03:34:24;23.70;57.30